< Typhoon 195914 1959 Season Typhoon 195916 >
Typhoon 195915 (VERA)
Isewan Typhoon
General InformationTrack Information on Google Maps || NewsDisaster Info.ResourceGoogle EarthGE AnimationAtom FeedGeoJSON
Detalied Best Track (Time Zone = UTC)
Year Month Day Hour Lat. Long. Pressure (hPa) Wind (kt) Class Image Chart
1959 9 20 00 11.0 160.0 1008 0 2 -- Chart
1959 9 20 06 10.0 157.3 1005 0 2 -- Chart
1959 9 20 12 10.0 154.7 1008 0 2 -- Chart
1959 9 20 18 11.0 152.2 1006 0 2 -- Chart
1959 9 21 00 12.0 150.0 1006 0 2 -- Chart
1959 9 21 06 13.6 150.0 1006 0 2 -- Chart
1959 9 21 12 14.8 150.0 1002 0 9 -- Chart
1959 9 21 18 15.5 149.4 1000 0 9 -- Chart
1959 9 22 00 16.5 148.5 996 0 9 -- Chart
1959 9 22 06 16.9 146.5 970 0 9 -- Chart
1959 9 22 12 17.1 145.9 960 0 9 -- Chart
1959 9 22 18 17.3 145.0 940 0 9 -- Chart
1959 9 23 00 18.1 143.7 905 0 9 -- Chart
1959 9 23 06 19.0 142.9 895 0 9 -- Chart
1959 9 23 12 19.7 141.7 895 0 9 -- Chart
1959 9 23 18 20.2 141.0 895 0 9 -- Chart
1959 9 24 00 20.7 140.0 900 0 9 -- Chart
1959 9 24 06 21.5 139.2 910 0 9 -- Chart
1959 9 24 12 22.2 138.3 910 0 9 -- Chart
1959 9 24 18 23.0 137.2 910 0 9 -- Chart
1959 9 25 00 24.1 136.2 900 0 9 -- Chart
1959 9 25 06 24.8 135.8 905 0 9 -- Chart
1959 9 25 12 26.5 134.8 910 0 9 -- Chart
1959 9 25 18 28.0 134.5 910 0 9 -- Chart
1959 9 26 00 29.7 134.5 920 0 9 -- Chart
1959 9 26 06 32.0 134.9 920 0 9 -- Chart
1959 9 26 12 35.0 136.1 940 0 9 -- Chart
1959 9 26 18 38.9 138.9 965 0 9 -- Chart
1959 9 27 00 40.5 140.3 984 0 9 -- Chart
1959 9 27 06 42.3 145.6 982 0 9 -- Chart
1959 9 27 12 43.0 150.0 982 0 6 -- Chart
1959 9 27 18 43.0 154.0 990 0 6 -- Chart
1959 9 28 00 42.5 158.4 992 0 6 -- Chart
1959 9 28 06 41.9 162.0 992 0 6 -- Chart
1959 9 28 12 41.0 166.0 992 0 6 -- Chart
1959 9 28 18 38.5 172.3 990 0 6 -- Chart
1959 9 29 00 36.0 175.5 994 0 6 -- Chart
1959 9 29 06 36.0 178.5 994 0 6 -- Chart
1959 9 29 12 35.9 184.0 996 0 6 -- Chart
Japan Meteorological Agency Best Track Data | Correction Date : 1991-07-16
< Typhoon 195914 1959 Season Typhoon 195916 >

Help